Pagina principale
METAR-TAF:

METAR-TAF

Aeroporti :

Lecce, Italia

Aeroporto di Lecce-San Cataldo

latitudine: 40-14N, longitudine: 018-09E, altezza: 48 m

Osservazione

Il bollettino è stato emesso 30 minuti fa, alle 11:55 UTC
Vento 4 kt da ovest/sud-ovest
Temperature 15°C
Umidità 77%
Pressione 1011 hPa
Visibilità 10 km o più
Nubi sparse ad un'altezza di 3500 ft

METAR: LIBN 191155Z 25004KT 9999 SCT035 15/11 Q1011 RMK BKN SCT060 VIS MIN 9999 WIND THR14 26004KT WIND THR32 30003KT BLU

Ora: 13:25 (12:25 UTC)


TAF: mancante

Osservazioni e previsioni meteorologiche di più di 4000 aeroporti (messaggi METAR e TAF).

Le stazioni disponibili sono rappresentate dai dischi gialli e rossi sulla carta.

Puntare il mouse per vedere il nome della stazione.

Clicca sopra per visualizzare le osservazioni e previsioni meteorologiche.

Per cambiare la mappa : fare clic sui pulsanti verdi con una croce nera per ingrandire, il pulsante verde con un trattino per diminuire, o sulla freccia verde per le mappe adiacenti.


METAR-TAF: